Terminal Aerodrome Forecast
Issued by NWS Corpus Christi, TX

Home | Current Version | Previous Version | Text Only | Print | Product List | Glossary On
Versions: 1 2 3 4 5 6 7 8 9 10 11 12
645
FTUS44 KCRP 231120
TAFCRP
TAF
KCRP 231120Z 2312/2412 17011KT P6SM SCT016
     FM231430 17016G23KT P6SM FEW030
     FM232000 13019G26KT P6SM FEW050
     FM240230 15014KT P6SM SCT025
     FM240800 15008KT P6SM SCT015
      TEMPO 2408/2412 BKN015=

USA.gov is the U.S. government's official web portal to all federal, state and local government web resources and services.